createdAt,value
2022-12-23T00:04:52.665Z,3.50
2022-12-23T00:09:56.253Z,3.46
2022-12-23T00:15:06.813Z,3.24
2022-12-23T00:20:12.354Z,3.11
2022-12-23T00:25:15.896Z,3.01
2022-12-23T00:30:20.847Z,2.95
2022-12-23T00:35:23.978Z,3.07
2022-12-23T00:40:44.454Z,3.12
2022-12-23T00:45:49.536Z,3.17
2022-12-23T00:50:53.801Z,3.31
2022-12-23T00:55:57.304Z,3.22
2022-12-23T01:01:19.328Z,3.22
2022-12-23T01:06:22.715Z,3.29
2022-12-23T01:11:26.323Z,3.29
2022-12-23T01:16:31.108Z,3.23
2022-12-23T01:21:34.452Z,3.03
2022-12-23T01:26:37.889Z,3.02
2022-12-23T01:31:42.674Z,3.11
2022-12-23T01:36:46.013Z,3.05
2022-12-23T01:42:06.891Z,3.03
2022-12-23T01:47:14.667Z,3.16
2022-12-23T01:52:18.617Z,3.24
2022-12-23T01:57:22.743Z,3.20
2022-12-23T02:02:46.400Z,3.20
2022-12-23T02:08:07.514Z,3.21
2022-12-23T02:13:17.613Z,3.34
2022-12-23T02:18:56.602Z,3.31
2022-12-23T02:24:42.648Z,3.30
2022-12-23T02:30:20.073Z,3.29
2022-12-23T02:35:30.907Z,3.36
2022-12-23T02:40:40.838Z,3.43
2022-12-23T02:45:49.273Z,3.12
2022-12-23T02:50:56.598Z,3.08
2022-12-23T02:56:02.315Z,3.20
2022-12-23T03:01:08.504Z,3.12
2022-12-23T03:06:22.376Z,3.25
2022-12-23T03:11:40.380Z,3.16
2022-12-23T03:16:53.586Z,3.20
2022-12-23T03:22:07.158Z,3.29
2022-12-23T03:27:17.514Z,3.25
2022-12-23T03:32:23.754Z,3.21
2022-12-23T03:37:31.579Z,3.29
2022-12-23T03:42:38.269Z,3.16
2022-12-23T03:47:45.893Z,3.30
2022-12-23T03:52:57.018Z,3.39
2022-12-23T03:58:03.805Z,3.30
2022-12-23T04:03:16.920Z,3.36
2022-12-23T04:08:25.688Z,3.36
2022-12-23T04:13:29.606Z,3.20
2022-12-23T04:18:32.980Z,3.06
2022-12-23T04:23:38.135Z,3.10
2022-12-23T04:28:41.613Z,3.06
2022-12-23T04:33:45.199Z,3.08
2022-12-23T04:38:50.113Z,2.95
2022-12-23T04:43:53.634Z,2.89
2022-12-23T04:48:57.146Z,2.98
2022-12-23T04:54:01.889Z,2.71
2022-12-23T04:59:05.350Z,2.86
2022-12-23T05:04:08.649Z,2.87
2022-12-23T05:09:13.585Z,2.85
2022-12-23T05:14:16.626Z,2.86
2022-12-23T05:19:19.905Z,2.92
2022-12-23T05:24:24.724Z,3.15
2022-12-23T05:29:27.949Z,3.03
2022-12-23T05:34:31.254Z,2.93
2022-12-23T05:39:36.176Z,2.96
2022-12-23T05:44:39.226Z,3.25
2022-12-23T05:49:42.663Z,3.17
2022-12-23T05:54:47.648Z,3.51
2022-12-23T05:59:50.938Z,3.67
2022-12-23T06:04:54.533Z,3.66
2022-12-23T06:09:59.588Z,3.99
2022-12-23T06:15:03.213Z,3.90
2022-12-23T06:20:11.206Z,3.86
2022-12-23T06:25:21.404Z,3.75
2022-12-23T06:30:24.793Z,3.55
2022-12-23T06:35:28.271Z,3.42
2022-12-23T06:40:32.987Z,3.37
2022-12-23T06:45:36.573Z,3.24
2022-12-23T06:50:39.994Z,3.27
2022-12-23T06:55:45.011Z,3.16
2022-12-23T07:00:48.527Z,3.01
2022-12-23T07:05:52.343Z,3.09
2022-12-23T07:11:00.839Z,2.96
2022-12-23T07:16:08.212Z,3.13
2022-12-23T07:21:19.978Z,3.11
2022-12-23T07:26:29.515Z,3.10
2022-12-23T07:31:33.079Z,3.06
2022-12-23T07:36:36.859Z,3.08
2022-12-23T07:41:41.706Z,3.15
2022-12-23T07:46:44.931Z,2.96
2022-12-23T07:51:48.402Z,2.96
2022-12-23T07:56:53.307Z,3.06
2022-12-23T08:01:56.468Z,3.10
2022-12-23T08:07:00.183Z,3.13
2022-12-23T08:12:05.535Z,3.30
2022-12-23T08:17:08.998Z,3.30
2022-12-23T08:22:12.558Z,3.30
2022-12-23T08:27:17.490Z,3.30
2022-12-23T08:32:20.528Z,3.11
2022-12-23T08:37:23.995Z,3.15
2022-12-23T08:42:28.736Z,3.22
2022-12-23T08:47:32.331Z,3.14
2022-12-23T08:52:35.749Z,3.06
2022-12-23T08:57:41.064Z,3.12
2022-12-23T09:02:44.737Z,2.90
2022-12-23T09:07:48.186Z,2.94
2022-12-23T09:12:55.201Z,3.17
2022-12-23T09:18:00.272Z,3.14
2022-12-23T09:23:04.050Z,3.17
2022-12-23T09:28:09.392Z,3.25
2022-12-23T09:33:13.128Z,3.30
2022-12-23T09:38:17.193Z,3.41
2022-12-23T09:43:29.141Z,3.40
2022-12-23T09:48:37.147Z,3.25
2022-12-23T09:53:50.857Z,3.44
2022-12-23T09:59:06.289Z,3.16
2022-12-23T10:04:29.905Z,3.28
2022-12-23T10:09:37.395Z,3.21
2022-12-23T10:14:42.905Z,3.08
2022-12-23T10:19:49.767Z,3.15
2022-12-23T10:24:55.268Z,3.08
2022-12-23T10:30:14.246Z,3.30
2022-12-23T10:35:43.655Z,3.45
2022-12-23T10:40:59.450Z,3.29
2022-12-23T10:46:19.283Z,3.37
2022-12-23T10:51:28.470Z,3.19
2022-12-23T10:56:32.488Z,3.35
2022-12-23T11:01:37.435Z,3.44
2022-12-23T11:06:44.910Z,3.40
2022-12-23T11:11:55.287Z,3.38
2022-12-23T11:17:00.506Z,3.48
2022-12-23T11:22:04.049Z,3.61
2022-12-23T11:27:13.187Z,3.93
2022-12-23T11:32:21.937Z,3.95
2022-12-23T11:37:31.569Z,4.17
2022-12-23T11:42:36.446Z,4.36
2022-12-23T11:47:43.320Z,4.29
2022-12-23T11:52:53.294Z,4.19
2022-12-23T11:57:57.936Z,4.66
2022-12-23T12:03:04.875Z,4.61
2022-12-23T12:08:12.803Z,4.50
2022-12-23T12:13:27.342Z,4.59
2022-12-23T12:18:33.606Z,4.58
2022-12-23T12:23:44.729Z,4.55
2022-12-23T12:28:55.458Z,4.40
2022-12-23T12:34:06.330Z,4.04
2022-12-23T12:39:17.348Z,3.84
2022-12-23T12:44:33.342Z,3.74
2022-12-23T12:49:44.783Z,3.62
2022-12-23T12:54:54.445Z,3.41
2022-12-23T13:00:05.986Z,3.32
2022-12-23T13:05:32.441Z,3.33
2022-12-23T13:10:43.740Z,3.39
2022-12-23T13:15:52.271Z,3.49
2022-12-23T13:21:03.865Z,3.52
2022-12-23T13:26:19.249Z,3.31
2022-12-23T13:31:34.760Z,3.43
2022-12-23T13:36:50.305Z,3.30
2022-12-23T13:42:04.609Z,3.19
2022-12-23T13:47:12.390Z,3.25
2022-12-23T13:52:23.739Z,3.19
2022-12-23T13:57:46.053Z,3.11
2022-12-23T14:02:54.041Z,3.03
2022-12-23T14:07:59.879Z,3.21
2022-12-23T14:13:06.435Z,3.33
2022-12-23T14:18:22.092Z,3.26
2022-12-23T14:23:43.139Z,3.40
2022-12-23T14:29:06.237Z,3.38
2022-12-23T14:34:29.633Z,3.36
2022-12-23T14:39:34.919Z,3.44
2022-12-23T14:44:47.405Z,3.54
2022-12-23T14:49:51.572Z,3.49
2022-12-23T14:55:28.482Z,3.56
2022-12-23T15:00:20.057Z,3.62
2022-12-23T15:05:24.598Z,3.60
2022-12-23T15:10:39.378Z,3.51
2022-12-23T15:16:00.723Z,3.43
2022-12-23T15:21:13.638Z,3.42
2022-12-23T15:26:18.648Z,3.42
2022-12-23T15:31:28.226Z,3.45
2022-12-23T15:36:37.133Z,3.44
2022-12-23T15:41:46.654Z,3.62
2022-12-23T15:46:50.800Z,3.56
2022-12-23T15:52:19.946Z,3.58
2022-12-23T15:57:25.569Z,3.52
2022-12-23T16:08:12.154Z,3.57
2022-12-23T16:13:20.281Z,3.72
2022-12-23T16:18:25.738Z,3.82
2022-12-23T16:23:31.247Z,3.77
2022-12-23T16:28:39.960Z,3.73
2022-12-23T16:33:45.447Z,3.89
2022-12-23T16:38:51.163Z,3.69
2022-12-23T16:43:56.018Z,3.88
2022-12-23T16:49:00.123Z,3.80
2022-12-23T16:54:03.619Z,3.74
2022-12-23T16:59:08.480Z,3.79
2022-12-23T17:04:11.726Z,3.93
2022-12-23T17:09:15.238Z,3.79
2022-12-23T17:14:23.001Z,3.88
2022-12-23T17:19:29.361Z,3.70
2022-12-23T17:24:33.183Z,3.89
2022-12-23T17:29:38.067Z,3.85
2022-12-23T17:34:41.310Z,3.96
2022-12-23T17:39:46.097Z,3.90
2022-12-23T17:44:51.051Z,3.88
2022-12-23T17:49:54.365Z,3.82
2022-12-23T17:54:57.836Z,3.85
2022-12-23T18:00:02.662Z,3.89
2022-12-23T18:05:21.208Z,3.93
2022-12-23T18:10:27.998Z,3.59
2022-12-23T18:15:36.610Z,3.64
2022-12-23T18:20:42.221Z,3.73
2022-12-23T18:25:45.800Z,3.56
2022-12-23T18:30:51.917Z,3.69
2022-12-23T18:35:55.315Z,3.73
2022-12-23T18:40:58.827Z,3.60
2022-12-23T18:46:03.820Z,3.79
2022-12-23T18:51:07.016Z,4.02
2022-12-23T18:56:14.275Z,3.74
2022-12-23T19:01:20.323Z,3.73
2022-12-23T19:06:23.839Z,3.70
2022-12-23T19:11:27.166Z,3.59
2022-12-23T19:16:32.246Z,3.60
2022-12-23T19:21:35.901Z,3.53
2022-12-23T19:26:39.323Z,3.70
2022-12-23T19:31:44.424Z,3.72
2022-12-23T19:36:48.316Z,3.70
2022-12-23T19:41:51.960Z,3.80
2022-12-23T19:46:56.843Z,3.79
2022-12-23T19:52:00.035Z,3.98
2022-12-23T19:57:03.381Z,3.77
2022-12-23T20:02:08.345Z,3.91
2022-12-23T20:07:11.995Z,3.78
2022-12-23T20:12:15.432Z,3.52
2022-12-23T20:17:20.408Z,3.77
2022-12-23T20:22:23.861Z,3.61
2022-12-23T20:27:28.217Z,3.66
2022-12-23T20:32:33.248Z,3.79
2022-12-23T20:37:36.671Z,3.56
2022-12-23T20:42:40.128Z,3.82
2022-12-23T20:47:45.004Z,3.82
2022-12-23T20:52:48.506Z,3.78
2022-12-23T20:57:51.935Z,3.66
2022-12-23T21:02:56.732Z,3.87
2022-12-23T21:08:00.157Z,3.62
2022-12-23T21:13:03.667Z,3.64
2022-12-23T21:18:08.413Z,3.74
2022-12-23T21:23:11.897Z,3.79
2022-12-23T21:28:15.211Z,3.99
2022-12-23T21:33:20.096Z,4.06
2022-12-23T21:38:23.523Z,4.04
2022-12-23T21:43:26.821Z,4.16
2022-12-23T21:48:33.303Z,4.14
2022-12-23T21:53:37.476Z,4.15
2022-12-23T21:58:41.205Z,4.02
2022-12-23T22:03:46.991Z,4.08
2022-12-23T22:08:51.425Z,4.02
2022-12-23T22:13:56.509Z,4.02
2022-12-23T22:19:02.708Z,4.10
2022-12-23T22:24:06.827Z,4.05
2022-12-23T22:29:12.290Z,4.10
2022-12-23T22:34:19.026Z,4.07
2022-12-23T22:39:23.062Z,4.14
2022-12-23T22:44:26.533Z,4.16
2022-12-23T22:49:31.469Z,4.05
2022-12-23T22:54:34.547Z,4.36
2022-12-23T22:59:38.321Z,4.27
2022-12-23T23:04:43.199Z,4.47
2022-12-23T23:09:46.435Z,4.54
2022-12-23T23:14:55.750Z,4.37
2022-12-23T23:20:00.518Z,4.62
2022-12-23T23:25:03.880Z,4.57
2022-12-23T23:30:08.346Z,4.44
2022-12-23T23:35:13.270Z,4.59
2022-12-23T23:40:16.514Z,4.36
2022-12-23T23:45:20.002Z,4.29
2022-12-23T23:50:24.878Z,4.14
2022-12-23T23:55:28.170Z,4.38
